sensor_id;sensor_type;location;lat;lon;timestamp;P1;durP1;ratioP1;P2;durP2;ratioP2
14021;SDS011;7086;48.116;11.580;2023-08-17T00:00:47;3.75;;;3.40;;
14021;SDS011;7086;48.116;11.580;2023-08-17T00:03:14;3.25;;;3.05;;
14021;SDS011;7086;48.116;11.580;2023-08-17T00:05:40;4.05;;;3.83;;
14021;SDS011;7086;48.116;11.580;2023-08-17T00:08:07;5.00;;;3.22;;
14021;SDS011;7086;48.116;11.580;2023-08-17T00:10:34;4.18;;;3.83;;
14021;SDS011;7086;48.116;11.580;2023-08-17T00:13:03;3.72;;;3.42;;
14021;SDS011;7086;48.116;11.580;2023-08-17T00:15:32;3.92;;;3.53;;
14021;SDS011;7086;48.116;11.580;2023-08-17T00:17:58;4.75;;;3.42;;
14021;SDS011;7086;48.116;11.580;2023-08-17T00:20:25;4.80;;;4.40;;
14021;SDS011;7086;48.116;11.580;2023-08-17T00:22:52;3.72;;;3.42;;
14021;SDS011;7086;48.116;11.580;2023-08-17T00:25:19;4.10;;;3.60;;
14021;SDS011;7086;48.116;11.580;2023-08-17T00:27:45;4.38;;;4.05;;
14021;SDS011;7086;48.116;11.580;2023-08-17T00:30:12;4.10;;;3.70;;
14021;SDS011;7086;48.116;11.580;2023-08-17T00:32:41;4.45;;;4.15;;
14021;SDS011;7086;48.116;11.580;2023-08-17T00:35:07;4.18;;;3.70;;
14021;SDS011;7086;48.116;11.580;2023-08-17T00:37:34;3.95;;;3.60;;
14021;SDS011;7086;48.116;11.580;2023-08-17T00:40:01;5.32;;;4.00;;
14021;SDS011;7086;48.116;11.580;2023-08-17T00:42:28;3.63;;;3.33;;
14021;SDS011;7086;48.116;11.580;2023-08-17T00:44:54;4.07;;;3.75;;
14021;SDS011;7086;48.116;11.580;2023-08-17T00:47:21;4.80;;;3.20;;
14021;SDS011;7086;48.116;11.580;2023-08-17T00:49:49;4.05;;;3.75;;
14021;SDS011;7086;48.116;11.580;2023-08-17T00:52:16;4.85;;;4.43;;
14021;SDS011;7086;48.116;11.580;2023-08-17T00:54:43;4.05;;;3.55;;
14021;SDS011;7086;48.116;11.580;2023-08-17T00:57:10;5.40;;;4.93;;
14021;SDS011;7086;48.116;11.580;2023-08-17T00:59:37;3.60;;;3.17;;
14021;SDS011;7086;48.116;11.580;2023-08-17T01:02:04;3.92;;;3.63;;
14021;SDS011;7086;48.116;11.580;2023-08-17T01:04:31;3.50;;;3.30;;
14021;SDS011;7086;48.116;11.580;2023-08-17T01:06:59;3.80;;;3.50;;
14021;SDS011;7086;48.116;11.580;2023-08-17T01:09:26;3.20;;;3.00;;
14021;SDS011;7086;48.116;11.580;2023-08-17T01:11:54;3.20;;;3.00;;
14021;SDS011;7086;48.116;11.580;2023-08-17T01:14:30;3.50;;;3.20;;
14021;SDS011;7086;48.116;11.580;2023-08-17T01:17:04;4.10;;;3.33;;
14021;SDS011;7086;48.116;11.580;2023-08-17T01:19:35;3.25;;;3.05;;
14021;SDS011;7086;48.116;11.580;2023-08-17T01:22:05;3.78;;;3.42;;
14021;SDS011;7086;48.116;11.580;2023-08-17T01:24:36;3.90;;;3.60;;
14021;SDS011;7086;48.116;11.580;2023-08-17T01:27:03;3.28;;;3.08;;
14021;SDS011;7086;48.116;11.580;2023-08-17T01:29:29;4.10;;;3.67;;
14021;SDS011;7086;48.116;11.580;2023-08-17T01:31:58;4.30;;;3.70;;
14021;SDS011;7086;48.116;11.580;2023-08-17T01:34:30;5.82;;;3.58;;
14021;SDS011;7086;48.116;11.580;2023-08-17T01:37:01;3.25;;;3.03;;
14021;SDS011;7086;48.116;11.580;2023-08-17T01:39:32;3.38;;;3.17;;
14021;SDS011;7086;48.116;11.580;2023-08-17T01:42:04;3.92;;;3.50;;
14021;SDS011;7086;48.116;11.580;2023-08-17T01:44:31;4.60;;;4.20;;
14021;SDS011;7086;48.116;11.580;2023-08-17T01:46:58;3.65;;;3.45;;
14021;SDS011;7086;48.116;11.580;2023-08-17T01:49:25;3.70;;;3.40;;
14021;SDS011;7086;48.116;11.580;2023-08-17T01:51:52;4.05;;;3.70;;
14021;SDS011;7086;48.116;11.580;2023-08-17T01:54:19;4.13;;;3.72;;
14021;SDS011;7086;48.116;11.580;2023-08-17T01:56:47;3.92;;;3.00;;
14021;SDS011;7086;48.116;11.580;2023-08-17T01:59:14;3.80;;;3.50;;
14021;SDS011;7086;48.116;11.580;2023-08-17T02:01:40;3.28;;;3.08;;
14021;SDS011;7086;48.116;11.580;2023-08-17T02:04:07;5.47;;;3.40;;
14021;SDS011;7086;48.116;11.580;2023-08-17T02:06:34;5.05;;;3.33;;
14021;SDS011;7086;48.116;11.580;2023-08-17T02:09:00;3.95;;;3.72;;
14021;SDS011;7086;48.116;11.580;2023-08-17T02:11:27;3.90;;;3.60;;
14021;SDS011;7086;48.116;11.580;2023-08-17T02:13:55;4.22;;;3.80;;
14021;SDS011;7086;48.116;11.580;2023-08-17T02:16:22;4.40;;;3.67;;
14021;SDS011;7086;48.116;11.580;2023-08-17T02:18:49;3.67;;;3.47;;
14021;SDS011;7086;48.116;11.580;2023-08-17T02:21:15;4.70;;;4.05;;
14021;SDS011;7086;48.116;11.580;2023-08-17T02:23:42;3.53;;;3.33;;
14021;SDS011;7086;48.116;11.580;2023-08-17T02:26:09;3.88;;;3.58;;
14021;SDS011;7086;48.116;11.580;2023-08-17T02:28:35;3.55;;;3.35;;
14021;SDS011;7086;48.116;11.580;2023-08-17T02:31:04;4.07;;;3.67;;
14021;SDS011;7086;48.116;11.580;2023-08-17T02:33:31;3.80;;;3.55;;
14021;SDS011;7086;48.116;11.580;2023-08-17T02:35:58;5.03;;;3.83;;
14021;SDS011;7086;48.116;11.580;2023-08-17T02:38:26;4.82;;;3.50;;
14021;SDS011;7086;48.116;11.580;2023-08-17T02:40:53;3.65;;;3.40;;
14021;SDS011;7086;48.116;11.580;2023-08-17T02:43:19;3.40;;;3.20;;
14021;SDS011;7086;48.116;11.580;2023-08-17T02:45:46;3.55;;;3.25;;
14021;SDS011;7086;48.116;11.580;2023-08-17T02:48:14;3.25;;;3.00;;
14021;SDS011;7086;48.116;11.580;2023-08-17T02:50:41;3.97;;;3.65;;
14021;SDS011;7086;48.116;11.580;2023-08-17T02:53:08;3.85;;;3.65;;
14021;SDS011;7086;48.116;11.580;2023-08-17T02:55:34;6.78;;;4.18;;
14021;SDS011;7086;48.116;11.580;2023-08-17T02:58:01;3.65;;;3.35;;
14021;SDS011;7086;48.116;11.580;2023-08-17T03:00:28;3.95;;;3.65;;
14021;SDS011;7086;48.116;11.580;2023-08-17T03:02:55;3.42;;;3.15;;
14021;SDS011;7086;48.116;11.580;2023-08-17T03:05:23;3.45;;;3.28;;
14021;SDS011;7086;48.116;11.580;2023-08-17T03:07:49;3.35;;;3.15;;
14021;SDS011;7086;48.116;11.580;2023-08-17T03:10:16;4.03;;;3.42;;
14021;SDS011;7086;48.116;11.580;2023-08-17T03:12:43;3.55;;;3.25;;
14021;SDS011;7086;48.116;11.580;2023-08-17T03:15:10;3.70;;;3.40;;
14021;SDS011;7086;48.116;11.580;2023-08-17T03:17:36;4.38;;;3.65;;
14021;SDS011;7086;48.116;11.580;2023-08-17T03:20:03;5.68;;;5.18;;
14021;SDS011;7086;48.116;11.580;2023-08-17T03:22:33;4.32;;;3.92;;
14021;SDS011;7086;48.116;11.580;2023-08-17T03:24:59;4.07;;;3.80;;
14021;SDS011;7086;48.116;11.580;2023-08-17T03:27:26;3.47;;;3.28;;
14021;SDS011;7086;48.116;11.580;2023-08-17T03:29:53;3.90;;;3.50;;
14021;SDS011;7086;48.116;11.580;2023-08-17T03:32:20;4.05;;;3.70;;
14021;SDS011;7086;48.116;11.580;2023-08-17T03:34:47;4.82;;;3.85;;
14021;SDS011;7086;48.116;11.580;2023-08-17T03:37:14;3.20;;;2.92;;
14021;SDS011;7086;48.116;11.580;2023-08-17T03:39:42;4.18;;;3.70;;
14021;SDS011;7086;48.116;11.580;2023-08-17T03:42:08;3.50;;;3.30;;
14021;SDS011;7086;48.116;11.580;2023-08-17T03:44:35;5.05;;;3.47;;
14021;SDS011;7086;48.116;11.580;2023-08-17T03:47:02;3.95;;;3.22;;
14021;SDS011;7086;48.116;11.580;2023-08-17T03:49:28;3.70;;;3.40;;
14021;SDS011;7086;48.116;11.580;2023-08-17T03:51:55;3.20;;;2.92;;
14021;SDS011;7086;48.116;11.580;2023-08-17T03:54:22;4.20;;;3.80;;
14021;SDS011;7086;48.116;11.580;2023-08-17T03:56:51;4.30;;;3.90;;
14021;SDS011;7086;48.116;11.580;2023-08-17T03:59:17;4.13;;;3.53;;
14021;SDS011;7086;48.116;11.580;2023-08-17T04:01:44;3.65;;;3.35;;
14021;SDS011;7086;48.116;11.580;2023-08-17T04:04:11;3.78;;;3.47;;
14021;SDS011;7086;48.116;11.580;2023-08-17T04:06:37;5.72;;;4.32;;
14021;SDS011;7086;48.116;11.580;2023-08-17T04:09:06;3.92;;;3.72;;
14021;SDS011;7086;48.116;11.580;2023-08-17T04:11:34;3.78;;;3.45;;
14021;SDS011;7086;48.116;11.580;2023-08-17T04:14:02;5.88;;;3.97;;
14021;SDS011;7086;48.116;11.580;2023-08-17T04:16:30;6.32;;;4.00;;
14021;SDS011;7086;48.116;11.580;2023-08-17T04:18:58;4.40;;;4.00;;
14021;SDS011;7086;48.116;11.580;2023-08-17T04:21:25;4.50;;;4.10;;
14021;SDS011;7086;48.116;11.580;2023-08-17T04:23:51;7.53;;;3.70;;
14021;SDS011;7086;48.116;11.580;2023-08-17T04:26:18;5.18;;;4.50;;
14021;SDS011;7086;48.116;11.580;2023-08-17T04:28:45;4.03;;;3.67;;
14021;SDS011;7086;48.116;11.580;2023-08-17T04:31:13;5.05;;;4.07;;
14021;SDS011;7086;48.116;11.580;2023-08-17T04:33:42;4.38;;;4.05;;
14021;SDS011;7086;48.116;11.580;2023-08-17T04:36:09;3.88;;;3.58;;
14021;SDS011;7086;48.116;11.580;2023-08-17T04:38:35;5.50;;;4.85;;
14021;SDS011;7086;48.116;11.580;2023-08-17T04:41:02;4.78;;;4.47;;
14021;SDS011;7086;48.116;11.580;2023-08-17T04:43:29;4.15;;;3.85;;
14021;SDS011;7086;48.116;11.580;2023-08-17T04:45:56;4.10;;;3.80;;
14021;SDS011;7086;48.116;11.580;2023-08-17T04:48:24;4.40;;;4.10;;
14021;SDS011;7086;48.116;11.580;2023-08-17T04:50:51;8.15;;;5.00;;
14021;SDS011;7086;48.116;11.580;2023-08-17T04:53:17;6.25;;;4.35;;
14021;SDS011;7086;48.116;11.580;2023-08-17T04:55:44;6.57;;;4.65;;
14021;SDS011;7086;48.116;11.580;2023-08-17T04:58:11;4.18;;;3.88;;
14021;SDS011;7086;48.116;11.580;2023-08-17T05:00:37;4.25;;;3.88;;
14021;SDS011;7086;48.116;11.580;2023-08-17T05:03:04;5.43;;;4.10;;
14021;SDS011;7086;48.116;11.580;2023-08-17T05:05:32;4.45;;;4.00;;
14021;SDS011;7086;48.116;11.580;2023-08-17T05:08:00;5.97;;;4.40;;
14021;SDS011;7086;48.116;11.580;2023-08-17T05:10:27;4.07;;;3.45;;
14021;SDS011;7086;48.116;11.580;2023-08-17T05:12:54;3.60;;;3.40;;
14021;SDS011;7086;48.116;11.580;2023-08-17T05:15:21;4.47;;;4.18;;
14021;SDS011;7086;48.116;11.580;2023-08-17T05:17:47;4.53;;;3.65;;
14021;SDS011;7086;48.116;11.580;2023-08-17T05:20:14;5.88;;;3.78;;
14021;SDS011;7086;48.116;11.580;2023-08-17T05:22:42;4.10;;;3.83;;
14021;SDS011;7086;48.116;11.580;2023-08-17T05:25:09;4.63;;;4.15;;
14021;SDS011;7086;48.116;11.580;2023-08-17T05:27:36;5.05;;;4.20;;
14021;SDS011;7086;48.116;11.580;2023-08-17T05:30:03;4.97;;;4.57;;
14021;SDS011;7086;48.116;11.580;2023-08-17T05:32:30;4.88;;;4.55;;
14021;SDS011;7086;48.116;11.580;2023-08-17T05:34:57;5.68;;;3.70;;
14021;SDS011;7086;48.116;11.580;2023-08-17T05:37:24;4.90;;;4.43;;
14021;SDS011;7086;48.116;11.580;2023-08-17T05:39:52;5.18;;;4.72;;
14021;SDS011;7086;48.116;11.580;2023-08-17T05:42:18;4.72;;;4.25;;
14021;SDS011;7086;48.116;11.580;2023-08-17T05:44:45;4.78;;;4.47;;
14021;SDS011;7086;48.116;11.580;2023-08-17T05:47:12;5.05;;;4.60;;
14021;SDS011;7086;48.116;11.580;2023-08-17T05:49:40;4.38;;;4.07;;
14021;SDS011;7086;48.116;11.580;2023-08-17T05:52:07;5.30;;;4.88;;
14021;SDS011;7086;48.116;11.580;2023-08-17T05:54:34;4.13;;;3.88;;
14021;SDS011;7086;48.116;11.580;2023-08-17T05:57:03;4.53;;;4.13;;
14021;SDS011;7086;48.116;11.580;2023-08-17T05:59:30;4.65;;;4.25;;
14021;SDS011;7086;48.116;11.580;2023-08-17T06:01:56;4.50;;;4.07;;
14021;SDS011;7086;48.116;11.580;2023-08-17T06:04:23;4.65;;;4.38;;
14021;SDS011;7086;48.116;11.580;2023-08-17T06:06:50;4.25;;;3.85;;
14021;SDS011;7086;48.116;11.580;2023-08-17T06:09:17;4.43;;;4.03;;
14021;SDS011;7086;48.116;11.580;2023-08-17T06:11:44;3.78;;;3.58;;
14021;SDS011;7086;48.116;11.580;2023-08-17T06:14:14;3.42;;;3.15;;
14021;SDS011;7086;48.116;11.580;2023-08-17T06:16:41;3.72;;;3.53;;
14021;SDS011;7086;48.116;11.580;2023-08-17T06:19:08;3.35;;;3.20;;
14021;SDS011;7086;48.116;11.580;2023-08-17T06:21:35;3.75;;;3.50;;
14021;SDS011;7086;48.116;11.580;2023-08-17T06:24:02;4.65;;;3.30;;
14021;SDS011;7086;48.116;11.580;2023-08-17T06:26:29;3.40;;;3.17;;
14021;SDS011;7086;48.116;11.580;2023-08-17T06:28:56;3.30;;;3.10;;
14021;SDS011;7086;48.116;11.580;2023-08-17T06:31:24;2.85;;;2.75;;
14021;SDS011;7086;48.116;11.580;2023-08-17T06:33:52;2.85;;;2.70;;
14021;SDS011;7086;48.116;11.580;2023-08-17T06:36:19;3.38;;;3.17;;
14021;SDS011;7086;48.116;11.580;2023-08-17T06:38:46;3.22;;;3.13;;
14021;SDS011;7086;48.116;11.580;2023-08-17T06:41:12;3.00;;;2.90;;
14021;SDS011;7086;48.116;11.580;2023-08-17T06:43:39;2.63;;;2.53;;
14021;SDS011;7086;48.116;11.580;2023-08-17T06:46:06;2.83;;;2.60;;
14021;SDS011;7086;48.116;11.580;2023-08-17T06:48:34;2.72;;;2.63;;
14021;SDS011;7086;48.116;11.580;2023-08-17T06:51:01;3.00;;;2.80;;
14021;SDS011;7086;48.116;11.580;2023-08-17T06:53:29;4.25;;;2.67;;
14021;SDS011;7086;48.116;11.580;2023-08-17T06:55:56;2.88;;;2.67;;
14021;SDS011;7086;48.116;11.580;2023-08-17T06:58:23;3.03;;;2.83;;
14021;SDS011;7086;48.116;11.580;2023-08-17T07:00:50;3.17;;;2.88;;
14021;SDS011;7086;48.116;11.580;2023-08-17T07:03:17;2.90;;;2.80;;
14021;SDS011;7086;48.116;11.580;2023-08-17T07:05:45;2.65;;;2.55;;
14021;SDS011;7086;48.116;11.580;2023-08-17T07:08:12;3.17;;;2.80;;
14021;SDS011;7086;48.116;11.580;2023-08-17T07:10:38;2.58;;;2.47;;
14021;SDS011;7086;48.116;11.580;2023-08-17T07:13:05;2.97;;;2.88;;
14021;SDS011;7086;48.116;11.580;2023-08-17T07:15:32;2.63;;;2.50;;
14021;SDS011;7086;48.116;11.580;2023-08-17T07:17:59;2.45;;;2.35;;
14021;SDS011;7086;48.116;11.580;2023-08-17T07:20:25;4.05;;;2.78;;
14021;SDS011;7086;48.116;11.580;2023-08-17T07:22:53;2.90;;;2.80;;
14021;SDS011;7086;48.116;11.580;2023-08-17T07:25:20;2.42;;;2.28;;
14021;SDS011;7086;48.116;11.580;2023-08-17T07:27:47;2.70;;;2.50;;
14021;SDS011;7086;48.116;11.580;2023-08-17T07:30:14;2.80;;;2.70;;
14021;SDS011;7086;48.116;11.580;2023-08-17T07:32:40;4.78;;;2.67;;
14021;SDS011;7086;48.116;11.580;2023-08-17T07:35:07;3.47;;;2.78;;
14021;SDS011;7086;48.116;11.580;2023-08-17T07:37:35;2.55;;;2.45;;
14021;SDS011;7086;48.116;11.580;2023-08-17T07:40:04;3.03;;;2.92;;
14021;SDS011;7086;48.116;11.580;2023-08-17T07:42:32;2.70;;;2.60;;
14021;SDS011;7086;48.116;11.580;2023-08-17T07:44:59;2.70;;;2.50;;
14021;SDS011;7086;48.116;11.580;2023-08-17T07:47:30;2.78;;;2.60;;
14021;SDS011;7086;48.116;11.580;2023-08-17T07:49:57;3.33;;;2.70;;
14021;SDS011;7086;48.116;11.580;2023-08-17T07:52:24;2.67;;;2.47;;
14021;SDS011;7086;48.116;11.580;2023-08-17T07:54:50;2.67;;;2.47;;
14021;SDS011;7086;48.116;11.580;2023-08-17T07:57:20;2.75;;;2.55;;
14021;SDS011;7086;48.116;11.580;2023-08-17T07:59:47;2.33;;;2.22;;
14021;SDS011;7086;48.116;11.580;2023-08-17T08:02:14;2.65;;;2.55;;
14021;SDS011;7086;48.116;11.580;2023-08-17T08:04:40;2.95;;;2.40;;
14021;SDS011;7086;48.116;11.580;2023-08-17T08:07:07;2.40;;;2.30;;
14021;SDS011;7086;48.116;11.580;2023-08-17T08:09:34;3.00;;;2.80;;
14021;SDS011;7086;48.116;11.580;2023-08-17T08:12:01;2.20;;;2.10;;
14021;SDS011;7086;48.116;11.580;2023-08-17T08:14:29;2.30;;;2.20;;
14021;SDS011;7086;48.116;11.580;2023-08-17T08:16:56;2.60;;;2.45;;
14021;SDS011;7086;48.116;11.580;2023-08-17T08:19:23;2.83;;;2.67;;
14021;SDS011;7086;48.116;11.580;2023-08-17T08:21:50;2.78;;;2.67;;
14021;SDS011;7086;48.116;11.580;2023-08-17T08:24:17;2.60;;;2.40;;
14021;SDS011;7086;48.116;11.580;2023-08-17T08:26:44;2.67;;;2.47;;
14021;SDS011;7086;48.116;11.580;2023-08-17T08:29:11;2.45;;;2.35;;
14021;SDS011;7086;48.116;11.580;2023-08-17T08:31:39;2.40;;;2.30;;
14021;SDS011;7086;48.116;11.580;2023-08-17T08:34:06;2.22;;;2.13;;
14021;SDS011;7086;48.116;11.580;2023-08-17T08:36:32;2.50;;;2.40;;
14021;SDS011;7086;48.116;11.580;2023-08-17T08:38:59;2.40;;;2.30;;
14021;SDS011;7086;48.116;11.580;2023-08-17T08:41:26;2.72;;;2.53;;
14021;SDS011;7086;48.116;11.580;2023-08-17T08:43:53;2.53;;;2.42;;
14021;SDS011;7086;48.116;11.580;2023-08-17T08:46:21;2.58;;;2.33;;
14021;SDS011;7086;48.116;11.580;2023-08-17T08:48:53;2.30;;;2.08;;
14021;SDS011;7086;48.116;11.580;2023-08-17T08:51:22;2.35;;;2.25;;
14021;SDS011;7086;48.116;11.580;2023-08-17T08:53:54;2.60;;;2.50;;
14021;SDS011;7086;48.116;11.580;2023-08-17T08:56:27;2.53;;;2.22;;
14021;SDS011;7086;48.116;11.580;2023-08-17T08:58:57;2.08;;;2.00;;
14021;SDS011;7086;48.116;11.580;2023-08-17T09:01:27;2.33;;;2.22;;
14021;SDS011;7086;48.116;11.580;2023-08-17T09:03:57;2.45;;;2.25;;
14021;SDS011;7086;48.116;11.580;2023-08-17T09:06:25;2.40;;;2.20;;
14021;SDS011;7086;48.116;11.580;2023-08-17T09:08:52;2.72;;;2.50;;
14021;SDS011;7086;48.116;11.580;2023-08-17T09:11:20;2.95;;;2.75;;
14021;SDS011;7086;48.116;11.580;2023-08-17T09:13:47;2.78;;;2.58;;
14021;SDS011;7086;48.116;11.580;2023-08-17T09:16:14;2.10;;;2.00;;
14021;SDS011;7086;48.116;11.580;2023-08-17T09:18:40;2.35;;;2.25;;
14021;SDS011;7086;48.116;11.580;2023-08-17T09:21:09;2.58;;;2.38;;
14021;SDS011;7086;48.116;11.580;2023-08-17T09:23:50;1.98;;;1.88;;
14021;SDS011;7086;48.116;11.580;2023-08-17T09:26:17;1.95;;;1.85;;
14021;SDS011;7086;48.116;11.580;2023-08-17T09:28:47;2.13;;;2.05;;
14021;SDS011;7086;48.116;11.580;2023-08-17T09:31:14;2.22;;;2.10;;
14021;SDS011;7086;48.116;11.580;2023-08-17T09:33:40;2.42;;;2.10;;
14021;SDS011;7086;48.116;11.580;2023-08-17T09:36:09;2.15;;;2.05;;
14021;SDS011;7086;48.116;11.580;2023-08-17T09:38:38;1.65;;;1.65;;
14021;SDS011;7086;48.116;11.580;2023-08-17T09:41:04;2.58;;;1.90;;
14021;SDS011;7086;48.116;11.580;2023-08-17T09:43:31;2.10;;;2.00;;
14021;SDS011;7086;48.116;11.580;2023-08-17T09:45:59;2.10;;;2.00;;
14021;SDS011;7086;48.116;11.580;2023-08-17T09:48:28;2.85;;;2.30;;
14021;SDS011;7086;48.116;11.580;2023-08-17T09:50:56;1.58;;;1.58;;
14021;SDS011;7086;48.116;11.580;2023-08-17T09:53:25;1.85;;;1.65;;
14021;SDS011;7086;48.116;11.580;2023-08-17T09:55:52;3.58;;;2.22;;
14021;SDS011;7086;48.116;11.580;2023-08-17T09:58:20;1.48;;;1.38;;
14021;SDS011;7086;48.116;11.580;2023-08-17T10:00:47;3.15;;;1.83;;
14021;SDS011;7086;48.116;11.580;2023-08-17T10:03:15;1.80;;;1.67;;
14021;SDS011;7086;48.116;11.580;2023-08-17T10:05:43;1.70;;;1.70;;
14021;SDS011;7086;48.116;11.580;2023-08-17T10:08:14;2.40;;;1.75;;
14021;SDS011;7086;48.116;11.580;2023-08-17T10:10:46;1.63;;;1.63;;
14021;SDS011;7086;48.116;11.580;2023-08-17T10:13:16;2.10;;;2.00;;
14021;SDS011;7086;48.116;11.580;2023-08-17T10:15:52;2.97;;;1.95;;
14021;SDS011;7086;48.116;11.580;2023-08-17T10:18:26;2.25;;;1.95;;
14021;SDS011;7086;48.116;11.580;2023-08-17T10:20:58;2.25;;;2.00;;
14021;SDS011;7086;48.116;11.580;2023-08-17T10:23:30;2.30;;;2.20;;
14021;SDS011;7086;48.116;11.580;2023-08-17T10:25:59;2.00;;;1.90;;
14021;SDS011;7086;48.116;11.580;2023-08-17T10:28:27;2.15;;;2.05;;
14021;SDS011;7086;48.116;11.580;2023-08-17T10:30:55;2.20;;;2.10;;
14021;SDS011;7086;48.116;11.580;2023-08-17T10:33:23;2.40;;;2.30;;
14021;SDS011;7086;48.116;11.580;2023-08-17T10:35:51;1.95;;;1.85;;
14021;SDS011;7086;48.116;11.580;2023-08-17T10:38:18;2.25;;;2.15;;
14021;SDS011;7086;48.116;11.580;2023-08-17T10:40:45;2.58;;;2.35;;
14021;SDS011;7086;48.116;11.580;2023-08-17T10:43:55;1.80;;;1.80;;
14021;SDS011;7086;48.116;11.580;2023-08-17T10:46:31;3.20;;;2.00;;
14021;SDS011;7086;48.116;11.580;2023-08-17T10:49:03;2.35;;;2.15;;
14021;SDS011;7086;48.116;11.580;2023-08-17T10:51:31;2.25;;;2.15;;
14021;SDS011;7086;48.116;11.580;2023-08-17T10:53:58;4.05;;;2.58;;
14021;SDS011;7086;48.116;11.580;2023-08-17T10:56:29;2.10;;;1.52;;
14021;SDS011;7086;48.116;11.580;2023-08-17T10:58:58;2.30;;;2.20;;
14021;SDS011;7086;48.116;11.580;2023-08-17T11:01:32;1.90;;;1.80;;
14021;SDS011;7086;48.116;11.580;2023-08-17T11:04:09;1.88;;;1.77;;
14021;SDS011;7086;48.116;11.580;2023-08-17T11:06:37;2.22;;;2.13;;
14021;SDS011;7086;48.116;11.580;2023-08-17T11:09:06;2.45;;;2.30;;
14021;SDS011;7086;48.116;11.580;2023-08-17T11:11:42;2.55;;;2.00;;
14021;SDS011;7086;48.116;11.580;2023-08-17T11:14:08;2.08;;;1.95;;
14021;SDS011;7086;48.116;11.580;2023-08-17T11:16:35;2.13;;;2.03;;
14021;SDS011;7086;48.116;11.580;2023-08-17T11:19:02;2.45;;;2.25;;
14021;SDS011;7086;48.116;11.580;2023-08-17T11:21:29;2.47;;;2.28;;
14021;SDS011;7086;48.116;11.580;2023-08-17T11:23:56;2.03;;;1.92;;
14021;SDS011;7086;48.116;11.580;2023-08-17T11:26:24;2.35;;;2.25;;
14021;SDS011;7086;48.116;11.580;2023-08-17T11:28:52;2.22;;;2.13;;
14021;SDS011;7086;48.116;11.580;2023-08-17T11:31:19;2.53;;;2.33;;
14021;SDS011;7086;48.116;11.580;2023-08-17T11:33:46;2.67;;;2.58;;
14021;SDS011;7086;48.116;11.580;2023-08-17T11:36:13;2.63;;;2.50;;
14021;SDS011;7086;48.116;11.580;2023-08-17T11:38:40;3.13;;;2.83;;
14021;SDS011;7086;48.116;11.580;2023-08-17T11:41:08;2.92;;;2.83;;
14021;SDS011;7086;48.116;11.580;2023-08-17T11:43:36;2.83;;;2.72;;
14021;SDS011;7086;48.116;11.580;2023-08-17T11:46:04;2.75;;;2.55;;
14021;SDS011;7086;48.116;11.580;2023-08-17T11:48:31;3.80;;;2.65;;
14021;SDS011;7086;48.116;11.580;2023-08-17T11:50:59;2.85;;;2.75;;
14021;SDS011;7086;48.116;11.580;2023-08-17T11:53:32;2.70;;;2.50;;
14021;SDS011;7086;48.116;11.580;2023-08-17T11:55:59;3.63;;;2.67;;
14021;SDS011;7086;48.116;11.580;2023-08-17T11:58:36;2.55;;;2.38;;
14021;SDS011;7086;48.116;11.580;2023-08-17T12:01:09;2.88;;;2.70;;
14021;SDS011;7086;48.116;11.580;2023-08-17T12:03:37;2.85;;;2.75;;
14021;SDS011;7086;48.116;11.580;2023-08-17T12:06:05;3.63;;;3.10;;
14021;SDS011;7086;48.116;11.580;2023-08-17T12:08:32;3.38;;;2.80;;
14021;SDS011;7086;48.116;11.580;2023-08-17T12:11:00;2.95;;;2.83;;
14021;SDS011;7086;48.116;11.580;2023-08-17T12:13:30;2.95;;;2.85;;
14021;SDS011;7086;48.116;11.580;2023-08-17T12:15:58;3.13;;;2.83;;
14021;SDS011;7086;48.116;11.580;2023-08-17T12:18:26;2.95;;;2.85;;
14021;SDS011;7086;48.116;11.580;2023-08-17T12:20:53;3.25;;;3.05;;
14021;SDS011;7086;48.116;11.580;2023-08-17T12:23:21;3.38;;;3.08;;
14021;SDS011;7086;48.116;11.580;2023-08-17T12:25:51;3.95;;;3.35;;
14021;SDS011;7086;48.116;11.580;2023-08-17T12:28:19;3.38;;;3.17;;
14021;SDS011;7086;48.116;11.580;2023-08-17T12:30:45;3.28;;;3.08;;
14021;SDS011;7086;48.116;11.580;2023-08-17T12:33:12;7.22;;;3.22;;
14021;SDS011;7086;48.116;11.580;2023-08-17T12:35:40;3.45;;;3.35;;
14021;SDS011;7086;48.116;11.580;2023-08-17T12:38:07;3.58;;;3.38;;
14021;SDS011;7086;48.116;11.580;2023-08-17T12:40:34;3.20;;;3.10;;
14021;SDS011;7086;48.116;11.580;2023-08-17T12:43:00;2.92;;;2.72;;
14021;SDS011;7086;48.116;11.580;2023-08-17T12:45:27;3.30;;;3.10;;
14021;SDS011;7086;48.116;11.580;2023-08-17T12:47:55;3.33;;;3.03;;
14021;SDS011;7086;48.116;11.580;2023-08-17T12:50:21;3.50;;;3.30;;
14021;SDS011;7086;48.116;11.580;2023-08-17T12:52:50;3.28;;;3.08;;
14021;SDS011;7086;48.116;11.580;2023-08-17T12:55:17;3.35;;;3.15;;
14021;SDS011;7086;48.116;11.580;2023-08-17T12:57:43;3.08;;;2.78;;
14021;SDS011;7086;48.116;11.580;2023-08-17T13:00:10;3.35;;;3.15;;
14021;SDS011;7086;48.116;11.580;2023-08-17T13:02:38;3.15;;;2.95;;
14021;SDS011;7086;48.116;11.580;2023-08-17T13:05:05;3.00;;;2.90;;
14021;SDS011;7086;48.116;11.580;2023-08-17T13:07:32;2.83;;;2.72;;
14021;SDS011;7086;48.116;11.580;2023-08-17T13:10:00;2.92;;;2.83;;
14021;SDS011;7086;48.116;11.580;2023-08-17T13:12:26;2.80;;;2.70;;
14021;SDS011;7086;48.116;11.580;2023-08-17T13:14:53;3.33;;;3.03;;
14021;SDS011;7086;48.116;11.580;2023-08-17T13:17:20;3.33;;;3.13;;
14021;SDS011;7086;48.116;11.580;2023-08-17T13:19:47;3.55;;;3.28;;
14021;SDS011;7086;48.116;11.580;2023-08-17T13:22:14;3.40;;;3.30;;
14021;SDS011;7086;48.116;11.580;2023-08-17T13:24:41;3.00;;;2.90;;
14021;SDS011;7086;48.116;11.580;2023-08-17T13:27:09;3.63;;;3.33;;
14021;SDS011;7086;48.116;11.580;2023-08-17T13:29:35;3.53;;;2.85;;
14021;SDS011;7086;48.116;11.580;2023-08-17T13:32:04;3.10;;;3.00;;
14021;SDS011;7086;48.116;11.580;2023-08-17T13:34:31;3.17;;;2.88;;
14021;SDS011;7086;48.116;11.580;2023-08-17T13:36:58;3.70;;;3.50;;
14021;SDS011;7086;48.116;11.580;2023-08-17T13:39:24;3.50;;;3.30;;
14021;SDS011;7086;48.116;11.580;2023-08-17T13:41:51;2.97;;;2.88;;
14021;SDS011;7086;48.116;11.580;2023-08-17T13:44:21;3.38;;;3.08;;
14021;SDS011;7086;48.116;11.580;2023-08-17T13:46:48;4.50;;;4.10;;
14021;SDS011;7086;48.116;11.580;2023-08-17T13:49:15;3.78;;;3.58;;
14021;SDS011;7086;48.116;11.580;2023-08-17T13:51:41;3.25;;;3.05;;
14021;SDS011;7086;48.116;11.580;2023-08-17T13:54:08;2.90;;;2.70;;
14021;SDS011;7086;48.116;11.580;2023-08-17T13:56:35;3.33;;;3.13;;
14021;SDS011;7086;48.116;11.580;2023-08-17T13:59:02;2.80;;;2.60;;
14021;SDS011;7086;48.116;11.580;2023-08-17T14:01:30;2.83;;;2.72;;
14021;SDS011;7086;48.116;11.580;2023-08-17T14:03:57;2.90;;;2.72;;
14021;SDS011;7086;48.116;11.580;2023-08-17T14:06:24;2.65;;;2.45;;
14021;SDS011;7086;48.116;11.580;2023-08-17T14:08:50;2.50;;;2.40;;
14021;SDS011;7086;48.116;11.580;2023-08-17T14:11:17;2.80;;;2.70;;
14021;SDS011;7086;48.116;11.580;2023-08-17T14:13:44;3.17;;;2.60;;
14021;SDS011;7086;48.116;11.580;2023-08-17T14:16:10;2.92;;;2.75;;
14021;SDS011;7086;48.116;11.580;2023-08-17T14:18:38;2.60;;;2.50;;
14021;SDS011;7086;48.116;11.580;2023-08-17T14:21:05;3.20;;;3.00;;
14021;SDS011;7086;48.116;11.580;2023-08-17T14:23:32;3.08;;;2.97;;
14021;SDS011;7086;48.116;11.580;2023-08-17T14:25:59;3.28;;;3.08;;
14021;SDS011;7086;48.116;11.580;2023-08-17T14:28:25;2.83;;;2.63;;
14021;SDS011;7086;48.116;11.580;2023-08-17T14:30:52;2.65;;;2.55;;
14021;SDS011;7086;48.116;11.580;2023-08-17T14:33:19;3.38;;;3.20;;
14021;SDS011;7086;48.116;11.580;2023-08-17T14:35:48;3.33;;;3.13;;
14021;SDS011;7086;48.116;11.580;2023-08-17T14:38:15;3.08;;;2.88;;
14021;SDS011;7086;48.116;11.580;2023-08-17T14:40:43;3.80;;;3.50;;
14021;SDS011;7086;48.116;11.580;2023-08-17T14:43:10;3.63;;;3.33;;
14021;SDS011;7086;48.116;11.580;2023-08-17T14:45:38;2.90;;;2.80;;
14021;SDS011;7086;48.116;11.580;2023-08-17T14:48:06;3.33;;;3.15;;
14021;SDS011;7086;48.116;11.580;2023-08-17T14:50:33;3.10;;;2.90;;